sensor_id;sensor_type;location;lat;lon;timestamp;P1;durP1;ratioP1;P2;durP2;ratioP2
77870;SDS011;67067;46.850;7.578;2023-02-24T00:00:20;20.92;;;9.70;;
77870;SDS011;67067;46.850;7.578;2023-02-24T00:01:49;26.75;;;12.32;;
77870;SDS011;67067;46.850;7.578;2023-02-24T00:02:51;26.48;;;11.57;;
77870;SDS011;67067;46.850;7.578;2023-02-24T00:03:52;25.33;;;11.77;;
77870;SDS011;67067;46.850;7.578;2023-02-24T00:05:01;27.30;;;11.65;;
77870;SDS011;67067;46.850;7.578;2023-02-24T00:06:04;25.00;;;11.43;;
77870;SDS011;67067;46.850;7.578;2023-02-24T00:07:11;25.60;;;11.93;;
77870;SDS011;67067;46.850;7.578;2023-02-24T00:08:15;24.95;;;12.35;;
77870;SDS011;67067;46.850;7.578;2023-02-24T00:09:17;27.90;;;12.93;;
77870;SDS011;67067;46.850;7.578;2023-02-24T00:10:22;28.42;;;12.73;;
77870;SDS011;67067;46.850;7.578;2023-02-24T00:11:22;26.33;;;11.87;;
77870;SDS011;67067;46.850;7.578;2023-02-24T00:12:22;27.27;;;12.40;;
77870;SDS011;67067;46.850;7.578;2023-02-24T00:13:24;25.27;;;11.57;;
77870;SDS011;67067;46.850;7.578;2023-02-24T00:14:25;27.73;;;13.33;;
77870;SDS011;67067;46.850;7.578;2023-02-24T00:15:28;26.17;;;11.70;;
77870;SDS011;67067;46.850;7.578;2023-02-24T00:16:36;25.92;;;12.27;;
77870;SDS011;67067;46.850;7.578;2023-02-24T00:17:39;24.13;;;12.18;;
77870;SDS011;67067;46.850;7.578;2023-02-24T00:18:40;25.58;;;12.73;;
77870;SDS011;67067;46.850;7.578;2023-02-24T00:19:41;28.47;;;12.93;;
77870;SDS011;67067;46.850;7.578;2023-02-24T00:20:42;26.13;;;12.30;;
77870;SDS011;67067;46.850;7.578;2023-02-24T00:21:42;26.63;;;12.60;;
77870;SDS011;67067;46.850;7.578;2023-02-24T00:22:43;29.40;;;13.50;;
77870;SDS011;67067;46.850;7.578;2023-02-24T00:23:46;29.52;;;14.20;;
77870;SDS011;67067;46.850;7.578;2023-02-24T00:24:47;25.20;;;12.17;;
77870;SDS011;67067;46.850;7.578;2023-02-24T00:25:48;25.33;;;11.63;;
77870;SDS011;67067;46.850;7.578;2023-02-24T00:26:52;28.52;;;13.13;;
77870;SDS011;67067;46.850;7.578;2023-02-24T00:27:56;28.45;;;11.77;;
77870;SDS011;67067;46.850;7.578;2023-02-24T00:29:02;26.92;;;11.82;;
77870;SDS011;67067;46.850;7.578;2023-02-24T00:30:05;26.17;;;11.80;;
77870;SDS011;67067;46.850;7.578;2023-02-24T00:31:08;25.23;;;11.10;;
77870;SDS011;67067;46.850;7.578;2023-02-24T00:32:15;27.38;;;11.55;;
77870;SDS011;67067;46.850;7.578;2023-02-24T00:33:16;27.30;;;12.55;;
77870;SDS011;67067;46.850;7.578;2023-02-24T00:34:21;24.77;;;11.00;;
77870;SDS011;67067;46.850;7.578;2023-02-24T00:35:24;25.52;;;10.98;;
77870;SDS011;67067;46.850;7.578;2023-02-24T00:36:26;27.33;;;12.27;;
77870;SDS011;67067;46.850;7.578;2023-02-24T00:37:29;25.48;;;11.23;;
77870;SDS011;67067;46.850;7.578;2023-02-24T00:38:34;25.85;;;11.07;;
77870;SDS011;67067;46.850;7.578;2023-02-24T00:40:40;23.65;;;11.60;;
77870;SDS011;67067;46.850;7.578;2023-02-24T00:41:44;27.40;;;12.70;;
77870;SDS011;67067;46.850;7.578;2023-02-24T00:42:44;24.70;;;11.30;;
77870;SDS011;67067;46.850;7.578;2023-02-24T00:43:49;27.92;;;12.50;;
77870;SDS011;67067;46.850;7.578;2023-02-24T00:44:50;23.67;;;11.50;;
77870;SDS011;67067;46.850;7.578;2023-02-24T00:45:53;26.58;;;11.55;;
77870;SDS011;67067;46.850;7.578;2023-02-24T00:46:54;25.27;;;11.87;;
77870;SDS011;67067;46.850;7.578;2023-02-24T00:47:54;31.00;;;13.23;;
77870;SDS011;67067;46.850;7.578;2023-02-24T00:49:00;27.20;;;12.13;;
77870;SDS011;67067;46.850;7.578;2023-02-24T00:50:04;22.75;;;10.75;;
77870;SDS011;67067;46.850;7.578;2023-02-24T00:51:08;27.85;;;13.00;;
77870;SDS011;67067;46.850;7.578;2023-02-24T00:52:17;29.17;;;13.52;;
77870;SDS011;67067;46.850;7.578;2023-02-24T00:53:18;24.58;;;11.88;;
77870;SDS011;67067;46.850;7.578;2023-02-24T00:54:19;23.80;;;11.13;;
77870;SDS011;67067;46.850;7.578;2023-02-24T00:55:26;25.05;;;11.73;;
77870;SDS011;67067;46.850;7.578;2023-02-24T00:56:35;29.48;;;12.35;;
77870;SDS011;67067;46.850;7.578;2023-02-24T00:57:39;29.95;;;11.65;;
77870;SDS011;67067;46.850;7.578;2023-02-24T00:58:40;26.02;;;11.95;;
77870;SDS011;67067;46.850;7.578;2023-02-24T00:59:42;26.67;;;12.75;;
77870;SDS011;67067;46.850;7.578;2023-02-24T01:00:46;24.35;;;11.68;;
77870;SDS011;67067;46.850;7.578;2023-02-24T01:01:47;27.70;;;12.73;;
77870;SDS011;67067;46.850;7.578;2023-02-24T01:02:49;26.52;;;11.75;;
77870;SDS011;67067;46.850;7.578;2023-02-24T01:03:53;25.25;;;12.45;;
77870;SDS011;67067;46.850;7.578;2023-02-24T01:04:56;28.75;;;13.07;;
77870;SDS011;67067;46.850;7.578;2023-02-24T01:06:00;25.63;;;12.20;;
77870;SDS011;67067;46.850;7.578;2023-02-24T01:07:05;28.75;;;13.23;;
77870;SDS011;67067;46.850;7.578;2023-02-24T01:08:10;27.52;;;11.95;;
77870;SDS011;67067;46.850;7.578;2023-02-24T01:09:17;27.23;;;12.48;;
77870;SDS011;67067;46.850;7.578;2023-02-24T01:10:19;26.05;;;12.50;;
77870;SDS011;67067;46.850;7.578;2023-02-24T01:11:22;24.50;;;12.48;;
77870;SDS011;67067;46.850;7.578;2023-02-24T01:12:44;26.48;;;12.63;;
77870;SDS011;67067;46.850;7.578;2023-02-24T01:13:53;29.48;;;12.85;;
77870;SDS011;67067;46.850;7.578;2023-02-24T01:14:56;26.05;;;13.00;;
77870;SDS011;67067;46.850;7.578;2023-02-24T01:15:59;30.90;;;13.60;;
77870;SDS011;67067;46.850;7.578;2023-02-24T01:17:01;28.70;;;13.20;;
77870;SDS011;67067;46.850;7.578;2023-02-24T01:18:05;28.00;;;12.88;;
77870;SDS011;67067;46.850;7.578;2023-02-24T01:19:07;29.57;;;13.40;;
77870;SDS011;67067;46.850;7.578;2023-02-24T01:20:08;26.48;;;13.32;;
77870;SDS011;67067;46.850;7.578;2023-02-24T01:21:18;28.38;;;12.93;;
77870;SDS011;67067;46.850;7.578;2023-02-24T01:22:22;25.70;;;12.63;;
77870;SDS011;67067;46.850;7.578;2023-02-24T01:23:22;24.60;;;12.40;;
77870;SDS011;67067;46.850;7.578;2023-02-24T01:25:25;26.77;;;12.48;;
77870;SDS011;67067;46.850;7.578;2023-02-24T01:26:27;27.05;;;12.13;;
77870;SDS011;67067;46.850;7.578;2023-02-24T01:27:29;23.85;;;11.68;;
77870;SDS011;67067;46.850;7.578;2023-02-24T01:28:30;26.20;;;12.23;;
77870;SDS011;67067;46.850;7.578;2023-02-24T01:29:31;25.33;;;12.13;;
77870;SDS011;67067;46.850;7.578;2023-02-24T01:30:31;23.52;;;11.68;;
77870;SDS011;67067;46.850;7.578;2023-02-24T01:31:32;25.20;;;12.27;;
77870;SDS011;67067;46.850;7.578;2023-02-24T01:32:33;26.33;;;13.17;;
77870;SDS011;67067;46.850;7.578;2023-02-24T01:33:34;26.27;;;12.37;;
77870;SDS011;67067;46.850;7.578;2023-02-24T01:34:38;24.55;;;11.27;;
77870;SDS011;67067;46.850;7.578;2023-02-24T01:35:41;24.83;;;11.77;;
77870;SDS011;67067;46.850;7.578;2023-02-24T01:36:42;25.10;;;11.90;;
77870;SDS011;67067;46.850;7.578;2023-02-24T01:37:43;23.33;;;11.35;;
77870;SDS011;67067;46.850;7.578;2023-02-24T01:38:44;26.42;;;12.00;;
77870;SDS011;67067;46.850;7.578;2023-02-24T01:39:47;25.55;;;11.55;;
77870;SDS011;67067;46.850;7.578;2023-02-24T01:40:54;24.20;;;11.20;;
77870;SDS011;67067;46.850;7.578;2023-02-24T01:41:58;24.00;;;10.90;;
77870;SDS011;67067;46.850;7.578;2023-02-24T01:43:03;23.83;;;11.13;;
77870;SDS011;67067;46.850;7.578;2023-02-24T01:45:16;24.27;;;10.43;;
77870;SDS011;67067;46.850;7.578;2023-02-24T01:46:32;24.92;;;11.40;;
77870;SDS011;67067;46.850;7.578;2023-02-24T01:47:38;27.85;;;12.02;;
77870;SDS011;67067;46.850;7.578;2023-02-24T01:48:39;25.60;;;12.25;;
77870;SDS011;67067;46.850;7.578;2023-02-24T01:49:41;25.80;;;12.30;;
77870;SDS011;67067;46.850;7.578;2023-02-24T01:50:44;24.33;;;12.38;;
77870;SDS011;67067;46.850;7.578;2023-02-24T01:51:55;28.08;;;12.23;;
77870;SDS011;67067;46.850;7.578;2023-02-24T01:53:04;23.98;;;11.23;;
77870;SDS011;67067;46.850;7.578;2023-02-24T01:54:07;25.52;;;11.32;;
77870;SDS011;67067;46.850;7.578;2023-02-24T01:55:13;27.08;;;11.55;;
77870;SDS011;67067;46.850;7.578;2023-02-24T01:56:19;24.42;;;11.30;;
77870;SDS011;67067;46.850;7.578;2023-02-24T01:57:20;23.80;;;10.70;;
77870;SDS011;67067;46.850;7.578;2023-02-24T01:58:25;28.55;;;11.20;;
77870;SDS011;67067;46.850;7.578;2023-02-24T01:59:29;23.08;;;11.13;;
77870;SDS011;67067;46.850;7.578;2023-02-24T02:00:30;24.10;;;11.52;;
77870;SDS011;67067;46.850;7.578;2023-02-24T02:01:37;26.63;;;11.13;;
77870;SDS011;67067;46.850;7.578;2023-02-24T02:02:42;23.48;;;11.45;;
77870;SDS011;67067;46.850;7.578;2023-02-24T02:03:45;26.85;;;11.88;;
77870;SDS011;67067;46.850;7.578;2023-02-24T02:05:54;26.42;;;11.82;;
77870;SDS011;67067;46.850;7.578;2023-02-24T02:07:00;25.60;;;10.95;;
77870;SDS011;67067;46.850;7.578;2023-02-24T02:08:04;21.55;;;11.15;;
77870;SDS011;67067;46.850;7.578;2023-02-24T02:09:09;25.90;;;11.27;;
77870;SDS011;67067;46.850;7.578;2023-02-24T02:10:13;27.70;;;11.27;;
77870;SDS011;67067;46.850;7.578;2023-02-24T02:11:14;26.17;;;12.30;;
77870;SDS011;67067;46.850;7.578;2023-02-24T02:12:25;21.85;;;11.27;;
77870;SDS011;67067;46.850;7.578;2023-02-24T02:13:30;25.70;;;11.80;;
77870;SDS011;67067;46.850;7.578;2023-02-24T02:14:35;22.27;;;10.93;;
77870;SDS011;67067;46.850;7.578;2023-02-24T02:15:43;24.98;;;11.38;;
77870;SDS011;67067;46.850;7.578;2023-02-24T02:17:16;25.83;;;12.10;;
77870;SDS011;67067;46.850;7.578;2023-02-24T02:28:07;23.85;;;10.70;;
77870;SDS011;67067;46.850;7.578;2023-02-24T02:36:14;26.10;;;11.68;;
77870;SDS011;67067;46.850;7.578;2023-02-24T02:39:09;22.60;;;10.35;;
77870;SDS011;67067;46.850;7.578;2023-02-24T02:40:28;23.63;;;10.52;;
77870;SDS011;67067;46.850;7.578;2023-02-24T02:42:56;23.80;;;11.38;;
77870;SDS011;67067;46.850;7.578;2023-02-24T02:44:06;26.25;;;11.65;;
77870;SDS011;67067;46.850;7.578;2023-02-24T02:46:26;28.88;;;12.38;;
77870;SDS011;67067;46.850;7.578;2023-02-24T02:47:49;27.45;;;12.00;;
77870;SDS011;67067;46.850;7.578;2023-02-24T02:48:55;27.27;;;11.98;;
77870;SDS011;67067;46.850;7.578;2023-02-24T02:50:00;23.95;;;11.40;;
77870;SDS011;67067;46.850;7.578;2023-02-24T02:51:18;26.08;;;11.55;;
77870;SDS011;67067;46.850;7.578;2023-02-24T02:52:27;24.67;;;11.45;;
77870;SDS011;67067;46.850;7.578;2023-02-24T02:53:41;25.48;;;11.45;;
77870;SDS011;67067;46.850;7.578;2023-02-24T02:54:53;26.02;;;11.73;;
77870;SDS011;67067;46.850;7.578;2023-02-24T02:56:04;26.73;;;11.23;;
77870;SDS011;67067;46.850;7.578;2023-02-24T02:57:11;24.40;;;11.57;;
77870;SDS011;67067;46.850;7.578;2023-02-24T02:58:26;22.45;;;10.40;;
77870;SDS011;67067;46.850;7.578;2023-02-24T02:59:30;24.25;;;10.57;;
77870;SDS011;67067;46.850;7.578;2023-02-24T03:00:35;25.45;;;11.15;;
77870;SDS011;67067;46.850;7.578;2023-02-24T03:01:41;22.58;;;11.23;;
77870;SDS011;67067;46.850;7.578;2023-02-24T03:02:47;23.92;;;11.00;;
77870;SDS011;67067;46.850;7.578;2023-02-24T03:03:55;25.90;;;10.93;;
77870;SDS011;67067;46.850;7.578;2023-02-24T03:05:00;24.02;;;11.43;;
77870;SDS011;67067;46.850;7.578;2023-02-24T03:06:05;22.52;;;10.93;;
77870;SDS011;67067;46.850;7.578;2023-02-24T03:07:11;26.35;;;12.80;;
77870;SDS011;67067;46.850;7.578;2023-02-24T03:08:17;25.55;;;11.77;;
77870;SDS011;67067;46.850;7.578;2023-02-24T03:09:29;27.67;;;11.63;;
77870;SDS011;67067;46.850;7.578;2023-02-24T03:10:31;26.23;;;11.25;;
77870;SDS011;67067;46.850;7.578;2023-02-24T03:12:33;22.13;;;10.35;;
77870;SDS011;67067;46.850;7.578;2023-02-24T03:13:40;23.95;;;11.10;;
77870;SDS011;67067;46.850;7.578;2023-02-24T03:14:48;22.85;;;10.57;;
77870;SDS011;67067;46.850;7.578;2023-02-24T03:15:52;24.65;;;10.00;;
77870;SDS011;67067;46.850;7.578;2023-02-24T03:16:56;24.25;;;11.38;;
77870;SDS011;67067;46.850;7.578;2023-02-24T03:18:05;22.90;;;10.63;;
77870;SDS011;67067;46.850;7.578;2023-02-24T03:19:12;23.67;;;10.07;;
77870;SDS011;67067;46.850;7.578;2023-02-24T03:20:21;23.05;;;10.77;;
77870;SDS011;67067;46.850;7.578;2023-02-24T03:21:30;22.50;;;11.05;;
77870;SDS011;67067;46.850;7.578;2023-02-24T03:22:38;23.70;;;11.15;;
77870;SDS011;67067;46.850;7.578;2023-02-24T03:24:01;27.02;;;11.10;;
77870;SDS011;67067;46.850;7.578;2023-02-24T03:25:07;24.52;;;10.13;;
77870;SDS011;67067;46.850;7.578;2023-02-24T03:26:19;27.48;;;11.68;;
77870;SDS011;67067;46.850;7.578;2023-02-24T03:27:30;21.90;;;9.88;;
77870;SDS011;67067;46.850;7.578;2023-02-24T03:28:47;24.17;;;10.95;;
77870;SDS011;67067;46.850;7.578;2023-02-24T03:30:12;25.65;;;10.63;;
77870;SDS011;67067;46.850;7.578;2023-02-24T03:31:20;25.50;;;11.02;;
77870;SDS011;67067;46.850;7.578;2023-02-24T03:32:28;23.65;;;10.52;;
77870;SDS011;67067;46.850;7.578;2023-02-24T03:33:38;27.02;;;12.25;;
77870;SDS011;67067;46.850;7.578;2023-02-24T03:36:11;23.40;;;11.07;;
77870;SDS011;67067;46.850;7.578;2023-02-24T03:37:14;20.85;;;9.32;;
77870;SDS011;67067;46.850;7.578;2023-02-24T03:39:17;25.50;;;10.90;;
77870;SDS011;67067;46.850;7.578;2023-02-24T03:41:39;23.45;;;10.18;;
77870;SDS011;67067;46.850;7.578;2023-02-24T03:42:50;25.42;;;11.00;;
77870;SDS011;67067;46.850;7.578;2023-02-24T03:43:56;25.90;;;11.02;;
77870;SDS011;67067;46.850;7.578;2023-02-24T03:44:59;24.52;;;11.55;;
77870;SDS011;67067;46.850;7.578;2023-02-24T03:46:00;26.80;;;11.88;;
77870;SDS011;67067;46.850;7.578;2023-02-24T03:47:04;23.42;;;11.15;;
77870;SDS011;67067;46.850;7.578;2023-02-24T03:48:07;25.07;;;12.10;;
77870;SDS011;67067;46.850;7.578;2023-02-24T03:49:11;25.95;;;12.30;;
77870;SDS011;67067;46.850;7.578;2023-02-24T03:50:18;24.50;;;11.57;;
77870;SDS011;67067;46.850;7.578;2023-02-24T03:51:26;29.70;;;12.27;;
77870;SDS011;67067;46.850;7.578;2023-02-24T03:53:43;27.40;;;11.82;;
77870;SDS011;67067;46.850;7.578;2023-02-24T03:56:07;25.30;;;11.75;;
77870;SDS011;67067;46.850;7.578;2023-02-24T04:00:26;25.88;;;10.02;;
77870;SDS011;67067;46.850;7.578;2023-02-24T04:02:38;25.77;;;11.55;;
77870;SDS011;67067;46.850;7.578;2023-02-24T04:05:27;22.42;;;10.73;;
77870;SDS011;67067;46.850;7.578;2023-02-24T04:06:44;22.95;;;10.75;;
77870;SDS011;67067;46.850;7.578;2023-02-24T04:07:54;23.33;;;10.25;;
77870;SDS011;67067;46.850;7.578;2023-02-24T04:10:57;26.67;;;10.88;;
77870;SDS011;67067;46.850;7.578;2023-02-24T04:12:17;22.50;;;10.70;;
77870;SDS011;67067;46.850;7.578;2023-02-24T04:15:12;25.17;;;10.50;;
77870;SDS011;67067;46.850;7.578;2023-02-24T04:16:33;22.30;;;10.23;;
77870;SDS011;67067;46.850;7.578;2023-02-24T04:17:42;22.25;;;10.98;;
77870;SDS011;67067;46.850;7.578;2023-02-24T04:18:49;24.60;;;11.48;;
77870;SDS011;67067;46.850;7.578;2023-02-24T04:19:55;26.35;;;11.88;;
77870;SDS011;67067;46.850;7.578;2023-02-24T04:21:02;22.83;;;11.48;;
77870;SDS011;67067;46.850;7.578;2023-02-24T04:22:07;27.73;;;12.55;;
77870;SDS011;67067;46.850;7.578;2023-02-24T04:23:13;24.58;;;11.15;;
77870;SDS011;67067;46.850;7.578;2023-02-24T04:24:17;25.30;;;11.20;;
77870;SDS011;67067;46.850;7.578;2023-02-24T04:25:24;26.70;;;11.95;;
77870;SDS011;67067;46.850;7.578;2023-02-24T04:26:27;22.63;;;11.63;;
77870;SDS011;67067;46.850;7.578;2023-02-24T04:27:30;21.45;;;11.00;;
77870;SDS011;67067;46.850;7.578;2023-02-24T04:28:43;26.17;;;11.93;;
77870;SDS011;67067;46.850;7.578;2023-02-24T04:29:53;27.08;;;11.52;;
77870;SDS011;67067;46.850;7.578;2023-02-24T04:31:00;23.55;;;11.70;;
77870;SDS011;67067;46.850;7.578;2023-02-24T04:32:07;25.20;;;11.68;;
77870;SDS011;67067;46.850;7.578;2023-02-24T04:33:11;25.13;;;11.50;;
77870;SDS011;67067;46.850;7.578;2023-02-24T04:34:15;23.40;;;11.45;;
77870;SDS011;67067;46.850;7.578;2023-02-24T04:35:19;25.92;;;11.68;;
77870;SDS011;67067;46.850;7.578;2023-02-24T04:36:23;24.05;;;11.63;;
77870;SDS011;67067;46.850;7.578;2023-02-24T04:37:26;22.70;;;10.15;;
77870;SDS011;67067;46.850;7.578;2023-02-24T04:38:34;25.10;;;10.40;;
77870;SDS011;67067;46.850;7.578;2023-02-24T04:39:35;21.85;;;9.43;;
77870;SDS011;67067;46.850;7.578;2023-02-24T04:40:43;26.33;;;11.18;;
77870;SDS011;67067;46.850;7.578;2023-02-24T04:41:47;23.23;;;10.48;;
77870;SDS011;67067;46.850;7.578;2023-02-24T04:42:49;24.80;;;11.45;;
77870;SDS011;67067;46.850;7.578;2023-02-24T04:43:50;22.42;;;10.50;;
77870;SDS011;67067;46.850;7.578;2023-02-24T04:44:51;23.83;;;9.60;;
77870;SDS011;67067;46.850;7.578;2023-02-24T04:45:57;22.38;;;10.88;;
77870;SDS011;67067;46.850;7.578;2023-02-24T04:46:58;22.10;;;10.30;;
77870;SDS011;67067;46.850;7.578;2023-02-24T04:48:00;24.80;;;10.68;;
77870;SDS011;67067;46.850;7.578;2023-02-24T04:49:02;28.98;;;11.50;;
77870;SDS011;67067;46.850;7.578;2023-02-24T04:50:02;23.27;;;10.67;;
77870;SDS011;67067;46.850;7.578;2023-02-24T04:51:06;22.23;;;10.20;;
77870;SDS011;67067;46.850;7.578;2023-02-24T04:52:07;23.30;;;10.10;;
77870;SDS011;67067;46.850;7.578;2023-02-24T04:53:12;23.77;;;10.57;;
77870;SDS011;67067;46.850;7.578;2023-02-24T04:54:16;24.73;;;10.68;;
77870;SDS011;67067;46.850;7.578;2023-02-24T04:55:24;24.70;;;10.32;;
77870;SDS011;67067;46.850;7.578;2023-02-24T04:56:28;25.65;;;11.43;;
77870;SDS011;67067;46.850;7.578;2023-02-24T04:57:29;28.83;;;13.07;;
77870;SDS011;67067;46.850;7.578;2023-02-24T04:58:29;28.77;;;11.97;;
77870;SDS011;67067;46.850;7.578;2023-02-24T04:59:30;25.65;;;11.52;;
77870;SDS011;67067;46.850;7.578;2023-02-24T05:00:30;26.70;;;12.47;;
77870;SDS011;67067;46.850;7.578;2023-02-24T05:01:38;26.10;;;11.82;;
77870;SDS011;67067;46.850;7.578;2023-02-24T05:02:40;25.63;;;11.55;;
77870;SDS011;67067;46.850;7.578;2023-02-24T05:03:41;24.67;;;12.43;;
77870;SDS011;67067;46.850;7.578;2023-02-24T05:04:44;24.00;;;10.90;;
77870;SDS011;67067;46.850;7.578;2023-02-24T05:05:49;25.40;;;12.13;;
77870;SDS011;67067;46.850;7.578;2023-02-24T05:06:59;23.35;;;11.48;;
77870;SDS011;67067;46.850;7.578;2023-02-24T05:08:01;24.92;;;11.73;;
77870;SDS011;67067;46.850;7.578;2023-02-24T05:09:07;24.88;;;11.30;;
77870;SDS011;67067;46.850;7.578;2023-02-24T05:10:13;25.88;;;11.88;;
77870;SDS011;67067;46.850;7.578;2023-02-24T05:11:15;25.08;;;11.40;;
77870;SDS011;67067;46.850;7.578;2023-02-24T05:12:17;22.17;;;10.38;;
77870;SDS011;67067;46.850;7.578;2023-02-24T05:13:19;24.53;;;9.87;;
77870;SDS011;67067;46.850;7.578;2023-02-24T05:14:26;25.15;;;10.13;;
77870;SDS011;67067;46.850;7.578;2023-02-24T05:15:27;23.13;;;9.77;;
77870;SDS011;67067;46.850;7.578;2023-02-24T05:16:33;20.80;;;9.10;;
77870;SDS011;67067;46.850;7.578;2023-02-24T05:17:34;22.03;;;9.37;;
77870;SDS011;67067;46.850;7.578;2023-02-24T05:18:35;23.27;;;9.32;;
77870;SDS011;67067;46.850;7.578;2023-02-24T05:19:36;19.17;;;8.77;;
77870;SDS011;67067;46.850;7.578;2023-02-24T05:20:55;23.20;;;9.85;;
77870;SDS011;67067;46.850;7.578;2023-02-24T05:22:15;23.42;;;9.52;;
77870;SDS011;67067;46.850;7.578;2023-02-24T05:24:17;25.83;;;9.57;;
77870;SDS011;67067;46.850;7.578;2023-02-24T05:25:20;22.80;;;9.23;;
77870;SDS011;67067;46.850;7.578;2023-02-24T05:26:21;21.47;;;9.20;;
77870;SDS011;67067;46.850;7.578;2023-02-24T05:27:24;24.05;;;10.35;;
77870;SDS011;67067;46.850;7.578;2023-02-24T05:28:27;22.75;;;9.88;;
77870;SDS011;67067;46.850;7.578;2023-02-24T05:29:33;23.58;;;9.80;;
77870;SDS011;67067;46.850;7.578;2023-02-24T05:33:06;21.88;;;9.68;;
77870;SDS011;67067;46.850;7.578;2023-02-24T05:34:07;22.87;;;9.83;;
77870;SDS011;67067;46.850;7.578;2023-02-24T05:35:07;23.90;;;9.33;;
77870;SDS011;67067;46.850;7.578;2023-02-24T05:36:10;23.40;;;9.73;;
77870;SDS011;67067;46.850;7.578;2023-02-24T05:37:16;22.85;;;9.52;;
77870;SDS011;67067;46.850;7.578;2023-02-24T05:38:19;22.65;;;9.13;;
77870;SDS011;67067;46.850;7.578;2023-02-24T05:39:20;22.87;;;9.87;;
77870;SDS011;67067;46.850;7.578;2023-02-24T05:40:25;23.17;;;9.93;;
77870;SDS011;67067;46.850;7.578;2023-02-24T05:41:28;22.77;;;10.30;;
77870;SDS011;67067;46.850;7.578;2023-02-24T05:42:36;20.65;;;9.35;;
77870;SDS011;67067;46.850;7.578;2023-02-24T05:43:36;22.67;;;9.33;;
77870;SDS011;67067;46.850;7.578;2023-02-24T05:44:38;19.95;;;9.25;;
77870;SDS011;67067;46.850;7.578;2023-02-24T05:45:38;24.23;;;9.50;;
77870;SDS011;67067;46.850;7.578;2023-02-24T05:46:43;22.08;;;9.18;;
77870;SDS011;67067;46.850;7.578;2023-02-24T05:47:45;20.60;;;9.10;;
77870;SDS011;67067;46.850;7.578;2023-02-24T05:48:49;21.02;;;8.55;;
77870;SDS011;67067;46.850;7.578;2023-02-24T05:49:50;25.08;;;11.30;;
77870;SDS011;67067;46.850;7.578;2023-02-24T05:50:53;24.27;;;10.48;;
77870;SDS011;67067;46.850;7.578;2023-02-24T05:51:55;21.97;;;10.60;;
77870;SDS011;67067;46.850;7.578;2023-02-24T05:52:57;23.25;;;10.63;;
77870;SDS011;67067;46.850;7.578;2023-02-24T05:53:57;22.97;;;10.93;;
77870;SDS011;67067;46.850;7.578;2023-02-24T05:54:58;23.60;;;10.97;;
77870;SDS011;67067;46.850;7.578;2023-02-24T05:56:06;25.60;;;11.25;;
77870;SDS011;67067;46.850;7.578;2023-02-24T05:57:13;26.83;;;11.43;;
77870;SDS011;67067;46.850;7.578;2023-02-24T05:58:18;25.85;;;11.25;;
77870;SDS011;67067;46.850;7.578;2023-02-24T05:59:18;24.43;;;10.33;;
77870;SDS011;67067;46.850;7.578;2023-02-24T06:00:20;22.58;;;10.13;;
77870;SDS011;67067;46.850;7.578;2023-02-24T06:01:24;23.80;;;10.13;;
77870;SDS011;67067;46.850;7.578;2023-02-24T06:02:29;25.73;;;9.68;;
77870;SDS011;67067;46.850;7.578;2023-02-24T06:03:36;21.92;;;9.85;;
77870;SDS011;67067;46.850;7.578;2023-02-24T06:04:37;23.17;;;10.20;;
77870;SDS011;67067;46.850;7.578;2023-02-24T06:05:52;25.42;;;10.43;;
77870;SDS011;67067;46.850;7.578;2023-02-24T06:06:53;23.42;;;9.60;;
77870;SDS011;67067;46.850;7.578;2023-02-24T06:07:54;26.03;;;10.10;;
77870;SDS011;67067;46.850;7.578;2023-02-24T06:09:03;21.58;;;9.25;;
77870;SDS011;67067;46.850;7.578;2023-02-24T06:10:11;23.65;;;9.90;;
77870;SDS011;67067;46.850;7.578;2023-02-24T06:11:17;26.40;;;10.68;;
77870;SDS011;67067;46.850;7.578;2023-02-24T06:12:20;25.20;;;10.93;;
77870;SDS011;67067;46.850;7.578;2023-02-24T06:13:24;23.85;;;10.30;;
77870;SDS011;67067;46.850;7.578;2023-02-24T06:14:25;23.57;;;9.47;;
77870;SDS011;67067;46.850;7.578;2023-02-24T06:15:27;25.92;;;10.60;;
77870;SDS011;67067;46.850;7.578;2023-02-24T06:16:31;23.25;;;9.55;;
77870;SDS011;67067;46.850;7.578;2023-02-24T06:17:33;24.85;;;10.60;;
77870;SDS011;67067;46.850;7.578;2023-02-24T06:18:34;24.43;;;10.87;;
77870;SDS011;67067;46.850;7.578;2023-02-24T06:19:34;23.93;;;9.63;;
77870;SDS011;67067;46.850;7.578;2023-02-24T06:20:35;24.85;;;9.80;;
77870;SDS011;67067;46.850;7.578;2023-02-24T06:21:37;24.85;;;10.18;;
77870;SDS011;67067;46.850;7.578;2023-02-24T06:22:40;23.25;;;9.85;;
77870;SDS011;67067;46.850;7.578;2023-02-24T06:23:43;23.83;;;10.00;;
77870;SDS011;67067;46.850;7.578;2023-02-24T06:24:44;24.60;;;10.10;;
77870;SDS011;67067;46.850;7.578;2023-02-24T06:25:50;24.67;;;9.23;;
77870;SDS011;67067;46.850;7.578;2023-02-24T06:26:52;22.50;;;9.75;;
77870;SDS011;67067;46.850;7.578;2023-02-24T06:27:52;27.10;;;10.57;;
77870;SDS011;67067;46.850;7.578;2023-02-24T06:28:58;22.55;;;9.40;;
77870;SDS011;67067;46.850;7.578;2023-02-24T06:30:01;23.73;;;8.90;;
77870;SDS011;67067;46.850;7.578;2023-02-24T06:31:03;26.75;;;10.00;;
77870;SDS011;67067;46.850;7.578;2023-02-24T06:32:05;22.67;;;8.98;;
77870;SDS011;67067;46.850;7.578;2023-02-24T06:33:08;21.17;;;9.05;;
77870;SDS011;67067;46.850;7.578;2023-02-24T06:34:12;22.95;;;9.57;;
77870;SDS011;67067;46.850;7.578;2023-02-24T06:35:13;25.85;;;10.13;;
77870;SDS011;67067;46.850;7.578;2023-02-24T06:36:14;21.60;;;9.40;;
77870;SDS011;67067;46.850;7.578;2023-02-24T06:37:14;22.57;;;9.37;;
77870;SDS011;67067;46.850;7.578;2023-02-24T06:38:15;25.42;;;9.27;;
77870;SDS011;67067;46.850;7.578;2023-02-24T06:39:16;21.77;;;8.67;;
77870;SDS011;67067;46.850;7.578;2023-02-24T06:40:16;21.77;;;8.80;;
77870;SDS011;67067;46.850;7.578;2023-02-24T06:41:17;22.17;;;9.23;;
77870;SDS011;67067;46.850;7.578;2023-02-24T06:42:18;25.13;;;8.37;;
77870;SDS011;67067;46.850;7.578;2023-02-24T06:43:19;21.55;;;9.30;;
77870;SDS011;67067;46.850;7.578;2023-02-24T06:44:19;18.40;;;8.23;;
77870;SDS011;67067;46.850;7.578;2023-02-24T06:45:20;22.27;;;8.33;;
77870;SDS011;67067;46.850;7.578;2023-02-24T06:46:22;18.40;;;9.65;;
77870;SDS011;67067;46.850;7.578;2023-02-24T06:47:22;22.33;;;10.47;;
77870;SDS011;67067;46.850;7.578;2023-02-24T06:48:22;24.53;;;11.27;;
77870;SDS011;67067;46.850;7.578;2023-02-24T06:49:23;18.17;;;9.47;;
77870;SDS011;67067;46.850;7.578;2023-02-24T06:50:25;24.35;;;9.38;;
77870;SDS011;67067;46.850;7.578;2023-02-24T06:51:27;24.08;;;9.15;;
77870;SDS011;67067;46.850;7.578;2023-02-24T06:52:31;23.55;;;9.52;;
77870;SDS011;67067;46.850;7.578;2023-02-24T06:53:35;24.48;;;9.45;;
77870;SDS011;67067;46.850;7.578;2023-02-24T06:54:42;21.60;;;9.18;;
77870;SDS011;67067;46.850;7.578;2023-02-24T06:55:46;21.52;;;9.18;;
77870;SDS011;67067;46.850;7.578;2023-02-24T06:57:57;20.92;;;7.75;;
77870;SDS011;67067;46.850;7.578;2023-02-24T06:59:03;19.20;;;8.48;;
77870;SDS011;67067;46.850;7.578;2023-02-24T07:00:06;23.40;;;9.07;;
77870;SDS011;67067;46.850;7.578;2023-02-24T07:01:20;21.50;;;9.55;;
77870;SDS011;67067;46.850;7.578;2023-02-24T07:02:25;23.38;;;9.15;;
77870;SDS011;67067;46.850;7.578;2023-02-24T07:03:38;19.83;;;8.90;;
77870;SDS011;67067;46.850;7.578;2023-02-24T07:04:46;24.55;;;10.25;;
77870;SDS011;67067;46.850;7.578;2023-02-24T07:05:49;20.30;;;9.50;;
77870;SDS011;67067;46.850;7.578;2023-02-24T07:06:54;23.45;;;9.27;;